sensor_id;sensor_type;location;lat;lon;timestamp;pressure;altitude;pressure_sealevel;temperature;humidity
9899;BME280;4988;49.238;6.698;2024-01-15T00:00:12;98371.94;;;-4.09;100.00
9899;BME280;4988;49.238;6.698;2024-01-15T00:02:38;98365.00;;;-4.10;100.00
9899;BME280;4988;49.238;6.698;2024-01-15T00:05:04;98362.41;;;-4.10;100.00
9899;BME280;4988;49.238;6.698;2024-01-15T00:07:29;98359.81;;;-4.07;100.00
9899;BME280;4988;49.238;6.698;2024-01-15T00:09:54;98358.94;;;-4.06;100.00
9899;BME280;4988;49.238;6.698;2024-01-15T00:12:20;98358.09;;;-4.05;100.00
9899;BME280;4988;49.238;6.698;2024-01-15T00:14:45;98349.41;;;-4.04;100.00
9899;BME280;4988;49.238;6.698;2024-01-15T00:17:10;98345.94;;;-4.03;100.00
9899;BME280;4988;49.238;6.698;2024-01-15T00:19:36;98335.53;;;-4.03;100.00
9899;BME280;4988;49.238;6.698;2024-01-15T00:22:01;98344.22;;;-4.01;100.00
9899;BME280;4988;49.238;6.698;2024-01-15T00:24:26;98332.09;;;-4.02;100.00
9899;BME280;4988;49.238;6.698;2024-01-15T00:26:52;98336.41;;;-4.01;100.00
9899;BME280;4988;49.238;6.698;2024-01-15T00:29:18;98341.59;;;-3.99;100.00
9899;BME280;4988;49.238;6.698;2024-01-15T00:31:44;98335.56;;;-4.01;100.00
9899;BME280;4988;49.238;6.698;2024-01-15T00:34:09;98324.28;;;-3.99;100.00
9899;BME280;4988;49.238;6.698;2024-01-15T00:36:35;98332.06;;;-3.96;100.00
9899;BME280;4988;49.238;6.698;2024-01-15T00:39:00;98334.69;;;-3.97;100.00
9899;BME280;4988;49.238;6.698;2024-01-15T00:41:26;98326.88;;;-3.96;100.00
9899;BME280;4988;49.238;6.698;2024-01-15T00:43:53;98334.69;;;-3.91;100.00
9899;BME280;4988;49.238;6.698;2024-01-15T00:46:18;98320.81;;;-3.93;100.00
9899;BME280;4988;49.238;6.698;2024-01-15T00:48:43;98331.22;;;-3.92;100.00
9899;BME280;4988;49.238;6.698;2024-01-15T00:51:09;98319.94;;;-3.91;100.00
9899;BME280;4988;49.238;6.698;2024-01-15T00:53:34;98313.03;;;-3.92;100.00
9899;BME280;4988;49.238;6.698;2024-01-15T00:55:59;98317.34;;;-3.89;100.00
9899;BME280;4988;49.238;6.698;2024-01-15T00:58:26;98323.41;;;-3.87;100.00
9899;BME280;4988;49.238;6.698;2024-01-15T01:00:51;98306.09;;;-3.86;100.00
9899;BME280;4988;49.238;6.698;2024-01-15T01:03:17;98320.81;;;-3.85;100.00
9899;BME280;4988;49.238;6.698;2024-01-15T01:05:42;98321.66;;;-3.82;100.00
9899;BME280;4988;49.238;6.698;2024-01-15T01:08:09;98322.53;;;-3.80;100.00
9899;BME280;4988;49.238;6.698;2024-01-15T01:10:34;98313.88;;;-3.76;100.00
9899;BME280;4988;49.238;6.698;2024-01-15T01:13:00;98311.25;;;-3.74;100.00
9899;BME280;4988;49.238;6.698;2024-01-15T01:15:25;98313.84;;;-3.73;100.00
9899;BME280;4988;49.238;6.698;2024-01-15T01:17:50;98310.38;;;-3.72;100.00
9899;BME280;4988;49.238;6.698;2024-01-15T01:20:16;98306.03;;;-3.71;100.00
9899;BME280;4988;49.238;6.698;2024-01-15T01:22:41;98306.91;;;-3.69;100.00
9899;BME280;4988;49.238;6.698;2024-01-15T01:25:07;98304.31;;;-3.69;100.00
9899;BME280;4988;49.238;6.698;2024-01-15T01:27:32;98300.84;;;-3.68;100.00
9899;BME280;4988;49.238;6.698;2024-01-15T01:29:58;98300.84;;;-3.63;100.00
9899;BME280;4988;49.238;6.698;2024-01-15T01:32:23;98299.94;;;-3.59;100.00
9899;BME280;4988;49.238;6.698;2024-01-15T01:34:49;98300.81;;;-3.62;100.00
9899;BME280;4988;49.238;6.698;2024-01-15T01:37:14;98298.22;;;-3.60;100.00
9899;BME280;4988;49.238;6.698;2024-01-15T01:39:41;98295.59;;;-3.59;100.00
9899;BME280;4988;49.238;6.698;2024-01-15T01:42:06;98294.72;;;-3.56;100.00
9899;BME280;4988;49.238;6.698;2024-01-15T01:44:32;98297.34;;;-3.58;100.00
9899;BME280;4988;49.238;6.698;2024-01-15T01:46:59;98295.59;;;-3.54;100.00
9899;BME280;4988;49.238;6.698;2024-01-15T01:49:25;98295.59;;;-3.54;100.00
9899;BME280;4988;49.238;6.698;2024-01-15T01:51:51;98285.19;;;-3.49;100.00
9899;BME280;4988;49.238;6.698;2024-01-15T01:54:17;98286.03;;;-3.49;100.00
9899;BME280;4988;49.238;6.698;2024-01-15T01:56:43;98279.94;;;-3.46;100.00
9899;BME280;4988;49.238;6.698;2024-01-15T01:59:09;98282.56;;;-3.48;100.00
9899;BME280;4988;49.238;6.698;2024-01-15T02:01:35;98286.03;;;-3.46;100.00
9899;BME280;4988;49.238;6.698;2024-01-15T02:04:01;98286.88;;;-3.45;100.00
9899;BME280;4988;49.238;6.698;2024-01-15T02:06:26;98300.75;;;-3.42;100.00
9899;BME280;4988;49.238;6.698;2024-01-15T02:08:52;98285.13;;;-3.38;100.00
9899;BME280;4988;49.238;6.698;2024-01-15T02:11:18;98275.59;;;-3.40;100.00
9899;BME280;4988;49.238;6.698;2024-01-15T02:13:43;98282.53;;;-3.37;100.00
9899;BME280;4988;49.238;6.698;2024-01-15T02:16:09;98278.19;;;-3.35;100.00
9899;BME280;4988;49.238;6.698;2024-01-15T02:18:44;98286.00;;;-3.35;100.00
9899;BME280;4988;49.238;6.698;2024-01-15T02:21:10;98281.63;;;-3.33;100.00
9899;BME280;4988;49.238;6.698;2024-01-15T02:23:36;98277.31;;;-3.32;100.00
9899;BME280;4988;49.238;6.698;2024-01-15T02:26:02;98259.94;;;-3.30;100.00
9899;BME280;4988;49.238;6.698;2024-01-15T02:28:28;98257.34;;;-3.29;100.00
9899;BME280;4988;49.238;6.698;2024-01-15T02:30:54;98256.47;;;-3.26;100.00
9899;BME280;4988;49.238;6.698;2024-01-15T02:33:19;98253.84;;;-3.26;100.00
9899;BME280;4988;49.238;6.698;2024-01-15T02:35:44;98242.56;;;-3.24;100.00
9899;BME280;4988;49.238;6.698;2024-01-15T02:38:11;98237.34;;;-3.22;100.00
9899;BME280;4988;49.238;6.698;2024-01-15T02:40:39;98252.06;;;-3.19;100.00
9899;BME280;4988;49.238;6.698;2024-01-15T02:43:04;98246.00;;;-3.15;100.00
9899;BME280;4988;49.238;6.698;2024-01-15T02:45:30;98252.03;;;-3.13;100.00
9899;BME280;4988;49.238;6.698;2024-01-15T02:47:55;98261.59;;;-3.12;100.00
9899;BME280;4988;49.238;6.698;2024-01-15T02:50:20;98274.56;;;-3.06;100.00
9899;BME280;4988;49.238;6.698;2024-01-15T02:52:46;98288.44;;;-2.99;100.00
9899;BME280;4988;49.238;6.698;2024-01-15T02:55:11;98280.59;;;-2.96;100.00
9899;BME280;4988;49.238;6.698;2024-01-15T02:57:37;98277.13;;;-2.98;100.00
9899;BME280;4988;49.238;6.698;2024-01-15T03:00:02;98268.44;;;-2.99;100.00
9899;BME280;4988;49.238;6.698;2024-01-15T03:02:29;98265.00;;;-2.99;100.00
9899;BME280;4988;49.238;6.698;2024-01-15T03:04:56;98263.22;;;-2.97;100.00
9899;BME280;4988;49.238;6.698;2024-01-15T03:07:22;98262.38;;;-2.98;100.00
9899;BME280;4988;49.238;6.698;2024-01-15T03:09:47;98253.69;;;-2.97;100.00
9899;BME280;4988;49.238;6.698;2024-01-15T03:12:12;98247.59;;;-2.94;100.00
9899;BME280;4988;49.238;6.698;2024-01-15T03:14:38;98252.78;;;-2.96;100.00
9899;BME280;4988;49.238;6.698;2024-01-15T03:17:03;98248.44;;;-2.94;100.00
9899;BME280;4988;49.238;6.698;2024-01-15T03:19:28;98244.97;;;-2.93;100.00
9899;BME280;4988;49.238;6.698;2024-01-15T03:21:54;98253.66;;;-2.91;100.00
9899;BME280;4988;49.238;6.698;2024-01-15T03:24:20;98250.16;;;-2.89;100.00
9899;BME280;4988;49.238;6.698;2024-01-15T03:26:45;98244.09;;;-2.90;100.00
9899;BME280;4988;49.238;6.698;2024-01-15T03:29:10;98235.44;;;-2.91;100.00
9899;BME280;4988;49.238;6.698;2024-01-15T03:31:36;98233.69;;;-2.87;100.00
9899;BME280;4988;49.238;6.698;2024-01-15T03:34:01;98228.47;;;-2.87;100.00
9899;BME280;4988;49.238;6.698;2024-01-15T03:36:26;98238.00;;;-2.87;100.00
9899;BME280;4988;49.238;6.698;2024-01-15T03:38:52;98238.88;;;-2.87;100.00
9899;BME280;4988;49.238;6.698;2024-01-15T03:41:17;98236.22;;;-2.81;100.00
9899;BME280;4988;49.238;6.698;2024-01-15T03:43:42;98224.94;;;-2.81;100.00
9899;BME280;4988;49.238;6.698;2024-01-15T03:46:08;98221.47;;;-2.82;100.00
9899;BME280;4988;49.238;6.698;2024-01-15T03:48:33;98217.97;;;-2.78;100.00
9899;BME280;4988;49.238;6.698;2024-01-15T03:50:58;98206.69;;;-2.80;100.00
9899;BME280;4988;49.238;6.698;2024-01-15T03:53:24;98214.50;;;-2.80;100.00
9899;BME280;4988;49.238;6.698;2024-01-15T03:55:49;98213.63;;;-2.77;100.00
9899;BME280;4988;49.238;6.698;2024-01-15T03:58:15;98203.22;;;-2.77;100.00
9899;BME280;4988;49.238;6.698;2024-01-15T04:00:41;98198.88;;;-2.77;100.00
9899;BME280;4988;49.238;6.698;2024-01-15T04:03:06;98202.31;;;-2.73;100.00
9899;BME280;4988;49.238;6.698;2024-01-15T04:05:31;98191.00;;;-2.73;100.00
9899;BME280;4988;49.238;6.698;2024-01-15T04:07:57;98197.97;;;-2.74;100.00
9899;BME280;4988;49.238;6.698;2024-01-15T04:10:22;98197.06;;;-2.70;100.00
9899;BME280;4988;49.238;6.698;2024-01-15T04:12:47;98191.00;;;-2.70;100.00
9899;BME280;4988;49.238;6.698;2024-01-15T04:15:13;98193.59;;;-2.69;100.00
9899;BME280;4988;49.238;6.698;2024-01-15T04:17:38;98200.50;;;-2.66;100.00
9899;BME280;4988;49.238;6.698;2024-01-15T04:20:04;98191.88;;;-2.68;100.00
9899;BME280;4988;49.238;6.698;2024-01-15T04:22:30;98179.69;;;-2.68;100.00
9899;BME280;4988;49.238;6.698;2024-01-15T04:24:55;98176.19;;;-2.65;100.00
9899;BME280;4988;49.238;6.698;2024-01-15T04:27:21;98169.25;;;-2.65;100.00
9899;BME280;4988;49.238;6.698;2024-01-15T04:29:46;98169.25;;;-2.63;100.00
9899;BME280;4988;49.238;6.698;2024-01-15T04:32:11;98163.16;;;-2.64;100.00
9899;BME280;4988;49.238;6.698;2024-01-15T04:34:37;98168.34;;;-2.64;100.00
9899;BME280;4988;49.238;6.698;2024-01-15T04:37:02;98167.47;;;-2.63;100.00
9899;BME280;4988;49.238;6.698;2024-01-15T04:39:28;98165.69;;;-2.56;100.00
9899;BME280;4988;49.238;6.698;2024-01-15T04:41:53;98162.22;;;-2.55;100.00
9899;BME280;4988;49.238;6.698;2024-01-15T04:44:18;98163.09;;;-2.58;100.00
9899;BME280;4988;49.238;6.698;2024-01-15T04:46:44;98168.31;;;-2.56;100.00
9899;BME280;4988;49.238;6.698;2024-01-15T04:49:10;98164.81;;;-2.56;100.00
9899;BME280;4988;49.238;6.698;2024-01-15T04:51:35;98156.19;;;-2.59;100.00
9899;BME280;4988;49.238;6.698;2024-01-15T04:54:01;98158.75;;;-2.57;100.00
9899;BME280;4988;49.238;6.698;2024-01-15T04:56:26;98153.50;;;-2.54;100.00
9899;BME280;4988;49.238;6.698;2024-01-15T04:58:51;98155.22;;;-2.53;100.00
9899;BME280;4988;49.238;6.698;2024-01-15T05:01:17;98147.41;;;-2.50;100.00
9899;BME280;4988;49.238;6.698;2024-01-15T05:03:42;98156.06;;;-2.49;100.00
9899;BME280;4988;49.238;6.698;2024-01-15T05:06:08;98157.81;;;-2.48;100.00
9899;BME280;4988;49.238;6.698;2024-01-15T05:08:34;98158.69;;;-2.49;100.00
9899;BME280;4988;49.238;6.698;2024-01-15T05:10:59;98156.06;;;-2.46;100.00
9899;BME280;4988;49.238;6.698;2024-01-15T05:13:24;98145.63;;;-2.46;100.00
9899;BME280;4988;49.238;6.698;2024-01-15T05:15:50;98142.16;;;-2.45;100.00
9899;BME280;4988;49.238;6.698;2024-01-15T05:18:15;98140.38;;;-2.43;100.00
9899;BME280;4988;49.238;6.698;2024-01-15T05:20:41;98140.38;;;-2.43;100.00
9899;BME280;4988;49.238;6.698;2024-01-15T05:23:07;98139.50;;;-2.42;100.00
9899;BME280;4988;49.238;6.698;2024-01-15T05:25:32;98135.13;;;-2.42;100.00
9899;BME280;4988;49.238;6.698;2024-01-15T05:27:58;98135.13;;;-2.42;100.00
9899;BME280;4988;49.238;6.698;2024-01-15T05:30:23;98129.94;;;-2.42;100.00
9899;BME280;4988;49.238;6.698;2024-01-15T05:32:48;98125.56;;;-2.38;100.00
9899;BME280;4988;49.238;6.698;2024-01-15T05:35:14;98124.66;;;-2.35;100.00
9899;BME280;4988;49.238;6.698;2024-01-15T05:37:44;98125.53;;;-2.35;100.00
9899;BME280;4988;49.238;6.698;2024-01-15T05:40:13;98123.78;;;-2.33;100.00
9899;BME280;4988;49.238;6.698;2024-01-15T05:42:39;98129.88;;;-2.34;100.00
9899;BME280;4988;49.238;6.698;2024-01-15T05:45:05;98131.59;;;-2.33;100.00
9899;BME280;4988;49.238;6.698;2024-01-15T05:47:31;98126.41;;;-2.33;100.00
9899;BME280;4988;49.238;6.698;2024-01-15T05:49:57;98125.50;;;-2.30;100.00
9899;BME280;4988;49.238;6.698;2024-01-15T05:52:22;98129.81;;;-2.31;100.00
9899;BME280;4988;49.238;6.698;2024-01-15T05:54:48;98122.88;;;-2.29;100.00
9899;BME280;4988;49.238;6.698;2024-01-15T05:57:14;98117.66;;;-2.32;100.00
9899;BME280;4988;49.238;6.698;2024-01-15T05:59:39;98116.78;;;-2.31;100.00
9899;BME280;4988;49.238;6.698;2024-01-15T06:02:05;98107.25;;;-2.32;100.00
9899;BME280;4988;49.238;6.698;2024-01-15T06:04:30;98108.97;;;-2.31;100.00
9899;BME280;4988;49.238;6.698;2024-01-15T06:06:55;98099.44;;;-2.30;100.00
9899;BME280;4988;49.238;6.698;2024-01-15T06:09:20;98092.44;;;-2.28;100.00
9899;BME280;4988;49.238;6.698;2024-01-15T06:11:46;98092.44;;;-2.27;100.00
9899;BME280;4988;49.238;6.698;2024-01-15T06:14:11;98091.59;;;-2.29;100.00
9899;BME280;4988;49.238;6.698;2024-01-15T06:16:36;98081.09;;;-2.26;100.00
9899;BME280;4988;49.238;6.698;2024-01-15T06:19:02;98079.38;;;-2.25;100.00
9899;BME280;4988;49.238;6.698;2024-01-15T06:21:28;98077.63;;;-2.23;100.00
9899;BME280;4988;49.238;6.698;2024-01-15T06:23:53;98086.25;;;-2.19;100.00
9899;BME280;4988;49.238;6.698;2024-01-15T06:26:19;98081.09;;;-2.22;100.00
9899;BME280;4988;49.238;6.698;2024-01-15T06:28:44;98085.41;;;-2.20;100.00
9899;BME280;4988;49.238;6.698;2024-01-15T06:31:09;98083.63;;;-2.19;100.00
9899;BME280;4988;49.238;6.698;2024-01-15T06:33:35;98077.56;;;-2.18;100.00
9899;BME280;4988;49.238;6.698;2024-01-15T06:36:00;98081.00;;;-2.16;100.00
9899;BME280;4988;49.238;6.698;2024-01-15T06:38:25;98079.25;;;-2.16;100.00
9899;BME280;4988;49.238;6.698;2024-01-15T06:40:51;98082.72;;;-2.14;100.00
9899;BME280;4988;49.238;6.698;2024-01-15T06:43:17;98085.31;;;-2.14;100.00
9899;BME280;4988;49.238;6.698;2024-01-15T06:45:43;98084.47;;;-2.14;100.00
9899;BME280;4988;49.238;6.698;2024-01-15T06:48:09;98085.28;;;-2.12;100.00
9899;BME280;4988;49.238;6.698;2024-01-15T06:50:34;98067.00;;;-2.07;100.00
9899;BME280;4988;49.238;6.698;2024-01-15T06:53:00;98069.56;;;-2.06;100.00
9899;BME280;4988;49.238;6.698;2024-01-15T06:55:25;98073.06;;;-2.05;100.00
9899;BME280;4988;49.238;6.698;2024-01-15T06:57:51;98082.59;;;-2.06;100.00
9899;BME280;4988;49.238;6.698;2024-01-15T07:00:17;98082.59;;;-2.06;100.00
9899;BME280;4988;49.238;6.698;2024-01-15T07:02:44;98081.72;;;-2.05;100.00
9899;BME280;4988;49.238;6.698;2024-01-15T07:05:10;98070.44;;;-2.04;100.00
9899;BME280;4988;49.238;6.698;2024-01-15T07:07:36;98078.22;;;-2.01;100.00
9899;BME280;4988;49.238;6.698;2024-01-15T07:10:01;98066.91;;;-2.01;100.00
9899;BME280;4988;49.238;6.698;2024-01-15T07:12:28;98066.00;;;-1.99;100.00
9899;BME280;4988;49.238;6.698;2024-01-15T07:14:54;98072.94;;;-1.95;100.00
9899;BME280;4988;49.238;6.698;2024-01-15T07:17:20;98058.13;;;-1.94;100.00
9899;BME280;4988;49.238;6.698;2024-01-15T07:19:45;98072.03;;;-1.94;100.00
9899;BME280;4988;49.238;6.698;2024-01-15T07:22:11;98065.91;;;-1.91;100.00
9899;BME280;4988;49.238;6.698;2024-01-15T07:24:37;98061.59;;;-1.94;100.00
9899;BME280;4988;49.238;6.698;2024-01-15T07:27:02;98064.19;;;-1.94;100.00
9899;BME280;4988;49.238;6.698;2024-01-15T07:29:30;98055.50;;;-1.92;100.00
9899;BME280;4988;49.238;6.698;2024-01-15T07:31:55;98068.50;;;-1.91;100.00
9899;BME280;4988;49.238;6.698;2024-01-15T07:34:21;98074.56;;;-1.86;100.00
9899;BME280;4988;49.238;6.698;2024-01-15T07:36:47;98072.84;;;-1.88;100.00
9899;BME280;4988;49.238;6.698;2024-01-15T07:39:12;98065.00;;;-1.87;100.00
9899;BME280;4988;49.238;6.698;2024-01-15T07:41:38;98067.56;;;-1.85;100.00
9899;BME280;4988;49.238;6.698;2024-01-15T07:44:05;98064.03;;;-1.80;100.00
9899;BME280;4988;49.238;6.698;2024-01-15T07:46:30;98061.38;;;-1.78;100.00
9899;BME280;4988;49.238;6.698;2024-01-15T07:48:55;98065.75;;;-1.80;100.00
9899;BME280;4988;49.238;6.698;2024-01-15T07:51:23;98072.69;;;-1.79;100.00
9899;BME280;4988;49.238;6.698;2024-01-15T07:53:48;98074.44;;;-1.78;100.00
9899;BME280;4988;49.238;6.698;2024-01-15T07:56:14;98076.94;;;-1.69;100.00
9899;BME280;4988;49.238;6.698;2024-01-15T07:58:39;98071.72;;;-1.69;100.00
9899;BME280;4988;49.238;6.698;2024-01-15T08:01:04;98071.56;;;-1.59;100.00
9899;BME280;4988;49.238;6.698;2024-01-15T08:03:30;98062.78;;;-1.55;100.00
9899;BME280;4988;49.238;6.698;2024-01-15T08:05:56;98068.09;;;-1.62;100.00
9899;BME280;4988;49.238;6.698;2024-01-15T08:08:23;98062.94;;;-1.65;100.00
9899;BME280;4988;49.238;6.698;2024-01-15T08:10:49;98063.88;;;-1.69;100.00
9899;BME280;4988;49.238;6.698;2024-01-15T08:13:14;98062.06;;;-1.64;100.00
9899;BME280;4988;49.238;6.698;2024-01-15T08:15:40;98069.91;;;-1.64;100.00
9899;BME280;4988;49.238;6.698;2024-01-15T08:18:06;98062.84;;;-1.58;100.00
9899;BME280;4988;49.238;6.698;2024-01-15T08:20:31;98061.97;;;-1.57;100.00
9899;BME280;4988;49.238;6.698;2024-01-15T08:22:57;98066.34;;;-1.59;100.00
9899;BME280;4988;49.238;6.698;2024-01-15T08:25:22;98058.53;;;-1.59;100.00
9899;BME280;4988;49.238;6.698;2024-01-15T08:27:47;98053.19;;;-1.52;100.00
9899;BME280;4988;49.238;6.698;2024-01-15T08:30:13;98061.88;;;-1.53;100.00
9899;BME280;4988;49.238;6.698;2024-01-15T08:32:38;98062.75;;;-1.52;100.00
9899;BME280;4988;49.238;6.698;2024-01-15T08:35:07;98064.50;;;-1.51;100.00
9899;BME280;4988;49.238;6.698;2024-01-15T08:37:33;98062.75;;;-1.52;100.00
9899;BME280;4988;49.238;6.698;2024-01-15T08:39:58;98068.84;;;-1.52;100.00
9899;BME280;4988;49.238;6.698;2024-01-15T08:42:24;98062.75;;;-1.52;100.00
9899;BME280;4988;49.238;6.698;2024-01-15T08:44:49;98059.22;;;-1.48;100.00
9899;BME280;4988;49.238;6.698;2024-01-15T08:47:15;98057.38;;;-1.43;100.00
9899;BME280;4988;49.238;6.698;2024-01-15T08:49:41;98055.59;;;-1.38;100.00
9899;BME280;4988;49.238;6.698;2024-01-15T08:52:08;98045.16;;;-1.39;100.00
9899;BME280;4988;49.238;6.698;2024-01-15T08:54:33;98060.84;;;-1.41;100.00
9899;BME280;4988;49.238;6.698;2024-01-15T08:56:58;98055.56;;;-1.36;100.00
9899;BME280;4988;49.238;6.698;2024-01-15T08:59:24;98065.06;;;-1.32;100.00
9899;BME280;4988;49.238;6.698;2024-01-15T09:01:54;98061.63;;;-1.34;100.00
9899;BME280;4988;49.238;6.698;2024-01-15T09:04:22;98056.38;;;-1.33;100.00
9899;BME280;4988;49.238;6.698;2024-01-15T09:06:48;98058.09;;;-1.32;100.00
9899;BME280;4988;49.238;6.698;2024-01-15T09:09:13;98058.06;;;-1.30;100.00
9899;BME280;4988;49.238;6.698;2024-01-15T09:11:41;98067.59;;;-1.27;100.00
9899;BME280;4988;49.238;6.698;2024-01-15T09:14:07;98066.66;;;-1.23;100.00
9899;BME280;4988;49.238;6.698;2024-01-15T09:16:33;98062.28;;;-1.21;100.00
9899;BME280;4988;49.238;6.698;2024-01-15T09:18:59;98063.16;;;-1.22;100.00
9899;BME280;4988;49.238;6.698;2024-01-15T09:21:24;98058.78;;;-1.20;100.00
9899;BME280;4988;49.238;6.698;2024-01-15T09:23:50;98054.41;;;-1.18;100.00
9899;BME280;4988;49.238;6.698;2024-01-15T09:26:16;98056.97;;;-1.15;100.00
9899;BME280;4988;49.238;6.698;2024-01-15T09:28:41;98052.53;;;-1.11;100.00
9899;BME280;4988;49.238;6.698;2024-01-15T09:31:07;98058.59;;;-1.08;100.00
9899;BME280;4988;49.238;6.698;2024-01-15T09:33:32;98061.16;;;-1.06;100.00
9899;BME280;4988;49.238;6.698;2024-01-15T09:36:01;98056.75;;;-1.03;100.00
9899;BME280;4988;49.238;6.698;2024-01-15T09:38:29;98060.16;;;-0.99;100.00
9899;BME280;4988;49.238;6.698;2024-01-15T09:40:54;98055.84;;;-1.00;100.00
9899;BME280;4988;49.238;6.698;2024-01-15T09:43:20;98054.91;;;-0.98;100.00
9899;BME280;4988;49.238;6.698;2024-01-15T09:45:46;98059.28;;;-0.98;100.00
9899;BME280;4988;49.238;6.698;2024-01-15T09:48:12;98057.41;;;-0.91;100.00
9899;BME280;4988;49.238;6.698;2024-01-15T09:50:37;98060.06;;;-0.93;100.00
9899;BME280;4988;49.238;6.698;2024-01-15T09:53:05;98056.59;;;-0.93;100.00
9899;BME280;4988;49.238;6.698;2024-01-15T09:55:30;98063.44;;;-0.86;100.00
9899;BME280;4988;49.238;6.698;2024-01-15T09:57:59;98068.59;;;-0.83;100.00
9899;BME280;4988;49.238;6.698;2024-01-15T10:00:25;98076.41;;;-0.82;100.00
9899;BME280;4988;49.238;6.698;2024-01-15T10:02:51;98075.50;;;-0.79;100.00
9899;BME280;4988;49.238;6.698;2024-01-15T10:05:17;98071.19;;;-0.80;100.00
9899;BME280;4988;49.238;6.698;2024-01-15T10:07:43;98065.00;;;-0.76;100.00
9899;BME280;4988;49.238;6.698;2024-01-15T10:10:11;98064.16;;;-0.78;100.00
9899;BME280;4988;49.238;6.698;2024-01-15T10:12:37;98065.84;;;-0.74;100.00
9899;BME280;4988;49.238;6.698;2024-01-15T10:15:03;98064.88;;;-0.70;100.00
9899;BME280;4988;49.238;6.698;2024-01-15T10:17:29;98070.88;;;-0.65;100.00
9899;BME280;4988;49.238;6.698;2024-01-15T10:19:56;98065.69;;;-0.66;100.00
9899;BME280;4988;49.238;6.698;2024-01-15T10:22:21;98061.19;;;-0.59;100.00
9899;BME280;4988;49.238;6.698;2024-01-15T10:24:47;98056.84;;;-0.59;100.00
9899;BME280;4988;49.238;6.698;2024-01-15T10:27:12;98056.81;;;-0.57;100.00
9899;BME280;4988;49.238;6.698;2024-01-15T10:29:37;98065.44;;;-0.52;100.00
9899;BME280;4988;49.238;6.698;2024-01-15T10:32:06;98066.31;;;-0.53;100.00
9899;BME280;4988;49.238;6.698;2024-01-15T10:34:33;98060.13;;;-0.47;100.00
9899;BME280;4988;49.238;6.698;2024-01-15T10:36:58;98059.16;;;-0.42;100.00
9899;BME280;4988;49.238;6.698;2024-01-15T10:39:24;98053.03;;;-0.42;100.00
9899;BME280;4988;49.238;6.698;2024-01-15T10:41:50;98055.56;;;-0.38;100.00
9899;BME280;4988;49.238;6.698;2024-01-15T10:44:17;98043.38;;;-0.39;100.00
9899;BME280;4988;49.238;6.698;2024-01-15T10:46:43;98045.03;;;-0.35;100.00
9899;BME280;4988;49.238;6.698;2024-01-15T10:49:09;98048.41;;;-0.28;100.00
9899;BME280;4988;49.238;6.698;2024-01-15T10:51:36;98043.13;;;-0.26;100.00
9899;BME280;4988;49.238;6.698;2024-01-15T10:54:01;98043.31;;;-0.34;100.00
9899;BME280;4988;49.238;6.698;2024-01-15T10:56:30;98044.22;;;-0.37;100.00
9899;BME280;4988;49.238;6.698;2024-01-15T10:58:56;98051.06;;;-0.29;100.00
9899;BME280;4988;49.238;6.698;2024-01-15T11:01:23;98050.28;;;-0.35;100.00
9899;BME280;4988;49.238;6.698;2024-01-15T11:03:49;98049.47;;;-0.38;100.00
9899;BME280;4988;49.238;6.698;2024-01-15T11:06:19;98043.34;;;-0.36;100.00
9899;BME280;4988;49.238;6.698;2024-01-15T11:08:51;98041.50;;;-0.30;100.00
9899;BME280;4988;49.238;6.698;2024-01-15T11:11:17;98037.91;;;-0.26;100.00
9899;BME280;4988;49.238;6.698;2024-01-15T11:13:43;98039.72;;;-0.30;100.00
9899;BME280;4988;49.238;6.698;2024-01-15T11:16:13;98039.69;;;-0.27;100.00
9899;BME280;4988;49.238;6.698;2024-01-15T11:18:43;98039.63;;;-0.25;100.00
9899;BME280;4988;49.238;6.698;2024-01-15T11:23:47;98049.25;;;-0.26;100.00
9899;BME280;4988;49.238;6.698;2024-01-15T11:26:43;98043.13;;;-0.26;100.00
9899;BME280;4988;49.238;6.698;2024-01-15T11:34:20;98044.50;;;-0.07;100.00
9899;BME280;4988;49.238;6.698;2024-01-15T11:41:52;98049.66;;;-0.04;100.00
9899;BME280;4988;49.238;6.698;2024-01-15T11:44:17;98051.31;;;0.01;100.00
9899;BME280;4988;49.238;6.698;2024-01-15T11:46:54;98052.97;;;0.05;100.00
9899;BME280;4988;49.238;6.698;2024-01-15T11:49:58;98058.41;;;-0.05;100.00
9899;BME280;4988;49.238;6.698;2024-01-15T11:52:24;98064.44;;;-0.01;100.00
9899;BME280;4988;49.238;6.698;2024-01-15T11:57:47;98055.69;;;0.00;100.00
9899;BME280;4988;49.238;6.698;2024-01-15T12:00:15;98058.16;;;0.08;100.00
9899;BME280;4988;49.238;6.698;2024-01-15T12:02:42;98064.00;;;0.19;100.00
9899;BME280;4988;49.238;6.698;2024-01-15T12:05:12;98064.97;;;0.15;100.00
9899;BME280;4988;49.238;6.698;2024-01-15T12:07:42;98068.25;;;0.23;100.00
9899;BME280;4988;49.238;6.698;2024-01-15T12:10:12;98069.78;;;0.34;100.00
9899;BME280;4988;49.238;6.698;2024-01-15T12:13:00;98070.13;;;0.18;100.00
9899;BME280;4988;49.238;6.698;2024-01-15T12:15:30;98069.28;;;0.16;100.00
9899;BME280;4988;49.238;6.698;2024-01-15T12:17:56;98067.47;;;0.21;100.00
9899;BME280;4988;49.238;6.698;2024-01-15T12:20:28;98063.09;;;0.20;100.00
9899;BME280;4988;49.238;6.698;2024-01-15T12:22:53;98067.50;;;0.18;100.00
9899;BME280;4988;49.238;6.698;2024-01-15T12:25:20;98072.69;;;0.20;100.00
9899;BME280;4988;49.238;6.698;2024-01-15T12:27:46;98070.88;;;0.23;100.00
9899;BME280;4988;49.238;6.698;2024-01-15T12:30:12;98081.06;;;0.37;100.00
9899;BME280;4988;49.238;6.698;2024-01-15T12:32:40;98076.81;;;0.31;100.00
9899;BME280;4988;49.238;6.698;2024-01-15T12:35:06;98084.56;;;0.36;100.00
9899;BME280;4988;49.238;6.698;2024-01-15T12:37:35;98079.50;;;0.28;100.00
9899;BME280;4988;49.238;6.698;2024-01-15T12:40:01;98080.19;;;0.37;100.00
9899;BME280;4988;49.238;6.698;2024-01-15T12:42:28;98086.56;;;0.23;100.00
9899;BME280;4988;49.238;6.698;2024-01-15T12:44:56;98081.34;;;0.25;100.00
9899;BME280;4988;49.238;6.698;2024-01-15T12:47:21;98084.00;;;0.22;100.00
9899;BME280;4988;49.238;6.698;2024-01-15T12:49:47;98081.44;;;0.20;100.00
9899;BME280;4988;49.238;6.698;2024-01-15T12:52:15;98083.81;;;0.29;100.00
9899;BME280;4988;49.238;6.698;2024-01-15T12:54:41;98077.56;;;0.37;100.00
9899;BME280;4988;49.238;6.698;2024-01-15T12:57:06;98083.63;;;0.39;100.00
9899;BME280;4988;49.238;6.698;2024-01-15T12:59:31;98079.38;;;0.33;100.00
9899;BME280;4988;49.238;6.698;2024-01-15T13:01:57;98080.19;;;0.37;100.00
9899;BME280;4988;49.238;6.698;2024-01-15T13:04:23;98086.34;;;0.34;100.00
9899;BME280;4988;49.238;6.698;2024-01-15T13:06:49;98077.56;;;0.37;100.00
9899;BME280;4988;49.238;6.698;2024-01-15T13:09:15;98070.59;;;0.37;100.00
9899;BME280;4988;49.238;6.698;2024-01-15T13:11:40;98070.31;;;0.48;100.00
9899;BME280;4988;49.238;6.698;2024-01-15T13:14:06;98066.06;;;0.44;100.00
9899;BME280;4988;49.238;6.698;2024-01-15T13:16:31;98063.53;;;0.39;100.00
9899;BME280;4988;49.238;6.698;2024-01-15T13:18:57;98068.88;;;0.36;100.00
9899;BME280;4988;49.238;6.698;2024-01-15T13:21:22;98074.91;;;0.40;100.00